X Fechar
foto

X Fechar
foto
Clique e saiba mais
Clique e saiba mais
Clique e saiba mais
Clique e saiba mais
Clique e saiba mais
Clique e saiba mais

Edgers Racing

KTM Sacramento

Toro Sports

SP Race Park

JPS Racing

MotoX Pneus

Arenafama

Clique e saiba mais

> Notícias > Últimas Notícias

Mundial: Melhores momentos e resultados das classificatórias do MXGP da Ásia
Publicado em: 13/07/2019

Romain Febvre vence na MXGP e Jorge Prado na MX2
Redação MotoX.com.br - Fotos: Yamaha e Youthstream


Romain Febvre

As corridas classificatórias do MXGP da Ásia, 12ª etapa do Mundial de Motocross 2019 e segunda rodada consecutiva na Indonésia, movimentaram o sábado em Semarang com Romain Febvre (Monster Energy Yamaha Factory MXGP) vencendo a classe MXGP e Jorge Prado (Red Bull KTM Factory Racing) a MX2.

A bateria da MXGP começou com Glenn Coldenhoff na frente seguido por Febvre que após algumas voltas cedeu o segundo lugar para Tim Gajser. O esloveno já ameaçava a primeira posição do holandês quando errou uma curva permitindo que Febvre retomasse a vice-liderança. 

O francês foi se aproximando de Coldenhoff e finalmente passou quando restavam três voltas para o final. Coldenhoff terminou em segundo e Gajser em terceiro. Romain Febvre: "Estou satisfeito com a minha pilotagem, me sinto bem e não estava tão quente hoje. Fiquei em segundo e Gajser passou por mim depois que cometi um erro e recuperei a posição quando ele errou. Senti que poderia forçar hoje e fiz acontecer. Primeira escolha de gate amanhã, então estou feliz. A pista foi ligeiramente alterada e eu gosto, o layout é legal".


Jorge Prado

Na MX2 Jorge Prado liderou desde a primeira volta à frente de Jago Geerts e Mathys Boisrame. Depois de duas voltas, com menos de um segundo separando os primeiros colocados, Geerts, em um momento que a poeira tornava as condições da prova difíceis, pressionou Prado que resistiu e depois começou a ampliar a vantagem até confirmar a vitória.

Jorge Prado: "Foi uma corrida muito boa e me senti confortável, vamos ver como vai ser amanhã. Tive uma boa sensação durante todo o dia. Gostei da pista mesmo que tenha sido um pouco difícil. O começo foi realmente a chave (para a vitória). Estava andando com muito cuidado hoje. Estava quente, mas não como no último fim de semana, quando também estava bem, mas me sinto melhor nesta pista, é divertida de andar".

Vídeo:



Resultados

P # MXGP País Bike Time V Diff Gap M.V. Speed
1 461 Febvre, Romain FRA Yam 24:18.499 12 0:00.000 0:00.000 1:50.724 56.2
2 259 Coldenhoff, Glenn NED KTM 24:27.564 12 0:09.065 0:09.065 1:51.476 55.8
3 243 Gajser, Tim SLO Hon 24:31.980 12 0:13.481 0:04.416 1:51.421 55.8
4 41 Jonass, Pauls LAT Hus 24:42.791 12 0:24.292 0:10.811 1:53.596 54.8
5 27 Jasikonis, Arminas LTU Hus 24:43.495 12 0:24.996 0:00.704 1:53.446 54.8
6 91 Seewer, Jeremy SUI Yam 24:46.301 12 0:27.802 0:02.806 1:53.579 54.8
7 89 Van Horebeek, Jeremy BEL Hon 24:48.557 12 0:30.058 0:02.256 1:53.254 54.9
8 128 Monticelli, Ivo ITA KTM 24:51.005 12 0:32.506 0:02.448 1:53.803 54.7
9 21 Paulin, Gautier FRA Yam 24:59.767 12 0:41.268 0:08.762 1:54.045 54.6
10 4 Tonus, Arnaud SUI Yam 25:15.689 12 0:57.190 0:15.922 1:54.461 54.4
11 189 Bogers, Brian NED Hon 25:25.960 12 1:07.461 0:10.271 1:55.127 54
12 99 Anstie, Max GBR KTM 25:32.236 12 1:13.737 0:06.276 1:56.049 53.6
13 7 Leok, Tanel EST Hus 25:53.918 12 1:35.419 0:21.682 1:57.964 52.7
14 621 Lusbo, Andero EST Hus 26:16.728 12 1:58.229 0:22.810 1:59.559 52
15 336 Stewart, Lewis AUS KTM 24:21.086 11 1 lap 1 lap 1:59.855 51.9
16 626 Milesevic, Joel AUS KTM 25:14.608 11 1 lap 0:53.522 2:03.564 50.4
17 227 Coles, Adam AUS Hus 25:33.393 11 1 lap 0:18.785 2:04.148 50.1
18 131 van Nobelen, Jordi NED Hus 24:52.476 10 2 laps 1 lap 2:12.357 47
19 251 Darias Vapanen, Bruno ESP KTM 25:21.287 10 2 laps 0:28.811 2:06.702 49.1
20 110 Lazaroni, Aldi INA Hus 25:26.660 10 2 laps 0:05.373 2:16.291 45.6
21 162 Farhan Hendra, Farhrodjie INA Hus 25:30.483 10 2 laps 0:03.823 2:15.767 45.8
22 244 Nakpane, Madjade TOG Hus 25:47.152 10 2 laps 0:16.669 2:17.549 45.2

P # MX2 País Bike Time V Diff Gap M.V. Speed
1 61 Prado, Jorge ESP KTM 24:36.734 12 0:00.000 0:00.000 1:52.389 55.4
2 193 Geerts, Jago BEL Yam 24:43.207 12 0:06.473 0:06.473 1:52.864 55.1
3 28 Vialle, Tom FRA KTM 24:44.834 12 0:08.100 0:01.627 1:53.156 55
4 19 Olsen, Thomas Kjer DEN Hus 24:46.656 12 0:09.922 0:01.822 1:53.397 54.9
5 959 Renaux, Maxime FRA Yam 24:48.811 12 0:12.077 0:02.155 1:54.100 54.5
6 10 Vlaanderen, Calvin NED Hon 24:50.875 12 0:14.141 0:02.064 1:53.640 54.8
7 29 Jacobi, Henry GER Kaw 25:02.067 12 0:25.333 0:11.192 1:54.779 54.2
8 811 Sterry, Adam GBR Kaw 25:09.825 12 0:33.091 0:07.758 1:54.841 54.2
9 14 Beaton, Jed AUS Hus 25:17.591 12 0:40.857 0:07.766 1:54.121 54.5
10 101 Pichon, Zachary FRA Hon 25:22.166 12 0:45.432 0:04.575 1:55.149 54
11 35 Harrison, Mitchell USA Kaw 25:24.069 12 0:47.335 0:01.903 1:55.697 53.8
12 225 Strubhart Moreau, Brian FRA Kaw 25:31.842 12 0:55.108 0:07.773 1:56.069 53.6
13 98 Vaessen, Bas NED KTM 25:34.083 12 0:57.349 0:02.241 1:56.178 53.6
14 102 Sikyna, Richard SVK KTM 25:51.657 12 1:14.923 0:17.574 1:56.746 53.3
15 66 Larranaga Olano, Iker ESP KTM 26:04.366 12 1:27.632 0:12.709 1:55.959 53.7
16 325 Alfarizi, Delvintor INA Hon 25:19.178 11 1 lap 1 lap 2:00.848 51.5
17 206 Ismayana, Diva INA Hus 26:41.405 11 1 lap 1:22.227 2:06.182 49.3
18 172 Boisrame, Mathys FRA Hon 22:02.563 10 2 laps 1 lap 1:54.732 54.2
19 32 Van doninck, Brent BEL Hon 9:43.352 4 8 laps 6 laps 1:54.651 54.3



Curso MotoX
JPS Racing

© 2000 - 2018 MotoX MX1 Internet